createdAt,value
2018-08-22T19:15:57.341Z,65.40
2018-08-22T19:16:55.475Z,65.98
2018-08-22T19:17:55.720Z,66.17
2018-08-22T19:18:55.816Z,67.14
2018-08-22T19:19:56.083Z,66.66
2018-08-22T19:20:56.252Z,66.37
2018-08-22T19:21:56.378Z,65.40
2018-08-22T19:22:56.644Z,64.92
2018-08-22T19:23:56.827Z,64.04
2018-08-22T19:24:57.025Z,63.76
2018-08-22T19:25:57.189Z,63.95
2018-08-22T19:26:57.381Z,64.14
2018-08-22T19:27:57.559Z,64.92
2018-08-22T19:28:57.889Z,64.14
2018-08-22T19:29:57.998Z,63.69
2018-08-22T19:30:58.296Z,63.85
2018-08-22T19:31:58.414Z,64.04
2018-08-22T19:32:58.611Z,64.04
2018-08-22T19:33:58.816Z,64.53
2018-08-22T19:34:59.070Z,64.43
2018-08-22T19:35:59.197Z,64.43
2018-08-22T19:36:59.492Z,64.92
2018-08-22T19:37:59.583Z,64.82
2018-08-22T19:38:59.778Z,66.27
2018-08-22T19:39:59.977Z,65.69
2018-08-22T19:41:00.189Z,64.62
2018-08-22T19:42:00.390Z,64.92
2018-08-22T19:43:00.585Z,64.82
2018-08-22T19:44:00.772Z,65.59
2018-08-22T19:45:00.983Z,65.20
2018-08-22T19:46:01.190Z,66.37
2018-08-22T19:47:01.418Z,66.95
2018-08-22T19:48:01.536Z,66.17
2018-08-22T19:49:01.863Z,66.91
2018-08-22T19:50:01.963Z,67.21
2018-08-22T19:51:02.109Z,67.21
2018-08-22T19:52:02.315Z,67.40
2018-08-22T19:53:02.494Z,67.88
2018-08-22T19:54:02.642Z,67.30
2018-08-22T19:55:02.829Z,67.59
2018-08-22T19:56:03.106Z,67.69
2018-08-22T19:57:03.424Z,67.69
2018-08-22T19:58:03.443Z,67.21
2018-08-22T19:59:03.677Z,67.30
2018-08-22T20:00:03.843Z,67.30
2018-08-22T20:01:04.826Z,67.59
2018-08-22T20:02:04.363Z,68.72
2018-08-22T20:03:04.398Z,69.68
2018-08-22T20:04:04.629Z,69.40
2018-08-22T20:05:04.839Z,70.07
2018-08-22T20:06:04.955Z,69.78
2018-08-22T20:07:05.262Z,70.84
2018-08-22T20:08:05.317Z,70.94
2018-08-22T20:09:05.564Z,70.75
2018-08-22T20:10:05.800Z,70.65
2018-08-22T20:11:05.903Z,70.75
2018-08-22T20:12:06.089Z,70.94
2018-08-22T20:13:06.444Z,70.72
2018-08-22T20:14:06.529Z,71.42
2018-08-22T20:15:06.743Z,71.68
2018-08-22T20:16:06.963Z,72.36
2018-08-22T20:17:07.100Z,72.55
2018-08-22T20:18:07.238Z,72.74
2018-08-22T20:19:07.469Z,72.64
2018-08-22T20:20:07.653Z,72.45
2018-08-22T20:21:07.826Z,72.16
2018-08-22T20:22:08.691Z,72.06
2018-08-22T20:23:08.371Z,72.36
2018-08-22T20:24:08.488Z,72.74
2018-08-22T20:25:08.503Z,73.22
2018-08-22T20:26:08.683Z,73.09
2018-08-22T20:27:09.004Z,73.09
2018-08-22T20:28:09.208Z,73.09
2018-08-22T20:29:09.349Z,73.86
2018-08-22T20:30:09.527Z,73.58
2018-08-22T20:31:09.791Z,73.58
2018-08-22T20:32:09.913Z,73.96
2018-08-22T20:33:10.019Z,73.77
2018-08-22T20:34:10.205Z,73.96
2018-08-22T20:35:10.419Z,73.77
2018-08-22T20:36:10.607Z,74.16
2018-08-22T20:37:10.796Z,74.44
2018-08-22T20:38:10.972Z,75.51
2018-08-22T20:39:11.189Z,75.79
2018-08-22T20:40:11.415Z,75.95
2018-08-22T20:41:11.688Z,74.89
2018-08-22T20:42:11.842Z,75.18
2018-08-22T20:43:11.922Z,75.09
2018-08-22T20:44:12.189Z,75.76
2018-08-22T20:45:12.369Z,76.34
2018-08-22T20:46:12.518Z,76.15
2018-08-22T20:47:12.692Z,75.85
2018-08-22T20:48:12.870Z,76.05
2018-08-22T20:49:13.061Z,75.18
